Terminal Aerodrome Forecast
Issued by NWS Charleston, WV

Home | Current Version | Previous Version | Text Only | Print | Product List | Glossary On
Versions: 1 2 3 4 5 6 7 8 9 10 11 12 13 14 15 16 17 18 19 20 21 22
000
FTUS41 KRLX 050500 RRA
TAFCRW
TAF
KCRW 050542Z 0506/0606 34006KT 2SM -SN OVC006
     FM050800 35008KT 3/4SM -SN OVC005
     FM051400 36008KT 2SM -SN OVC005
     FM051700 36006KT 3SM -SN BR OVC008
     FM052000 33008KT 5SM -SN OVC015
     FM052100 33008KT P6SM OVC030
     FM060400 00000KT P6SM SCT030=

USA.gov is the U.S. government's official web portal to all federal, state and local government web resources and services.